Terminal Aerodrome Forecast
Issued by NWS Blacksburg, VA

Home | Current Version | Previous Version | Text Only | Print | Product List | Glossary On
Versions: 1 2 3 4 5 6 7 8 9 10 11 12 13 14 15 16 17 18 19 20 21 22 23 24 25 26 27 28 29 30 31 32
000
FTUS41 KRNK 221727
TAFBLF
TAF
KBLF 221727Z 2218/2318 24013G26KT P6SM BKN035
      TEMPO 2220/2222 4SM -SHRA OVC025
     FM230300 VRB03KT P6SM -RA OVC015
     FM230800 16005KT P6SM BKN008
     FM231100 15006KT P6SM BKN010=

USA.gov is the U.S. government's official web portal to all federal, state and local government web resources and services.